Terminal Aerodrome Forecast
Issued by NWS Charleston, SC

Home | Current Version | Previous Version | Text Only | Print | Product List | Glossary On
Versions: 1 2 3 4 5 6 7 8 9 10 11 12 13 14 15 16 17 18 19 20
000
FTUS42 KCHS 022347 CCA
TAFCHS
TAF COR
KCHS 022347Z 0300/0324 21016G24KT P6SM VCTS SCT040CB BKN070
      TEMPO 0300/0301 VRB30G40KT 2SM +TSRA BKN035CB
     FM030200 23008KT P6SM FEW040 BKN150
     FM031600 25012G18KT P6SM FEW050 BKN080
     FM031900 22016G22KT P6SM VCTS BKN035CB=

USA.gov is the U.S. government's official web portal to all federal, state and local government web resources and services.